AOJ74J EDDN-LOWW
Flight info
| Callsign | AOJ74J |
|---|---|
| Flight time | 0h 43m |
| Altitude | 29000 |
| Route | RODIS1G RODIS L604 LAMSI DCT VENEN VENEN3W |
| Aircraft | C750/M-SBDE3FGHRWXY/S |
Departure
| Time | 2026-05-05 14:26 |
|---|---|
| Airport | Nuremberg Airport (EDDN) |
Arrival
| Time | 2026-05-05 15:10 |
|---|---|
| Airport | Vienna International Airport (LOWW) |
| Time | Latitude | Longitude | Altitude | Speed | Heading |
|---|---|---|---|---|---|
| 2026-05-05 14:08 | 49.49633 | 11.07079 | 1021 ft | 0 kts | 189° |
| 2026-05-05 14:22 | 49.49628 | 11.07078 | 1021 ft | 5 kts | 189° |
| 2026-05-05 14:22 | 49.49594 | 11.07087 | 1022 ft | 8 kts | 135° |
| 2026-05-05 14:22 | 49.49584 | 11.07177 | 1022 ft | 8 kts | 74° |
| 2026-05-05 14:23 | 49.49630 | 11.07226 | 1022 ft | 8 kts | 40° |
| 2026-05-05 14:23 | 49.49629 | 11.07328 | 1022 ft | 13 kts | 98° |
| 2026-05-05 14:23 | 49.49613 | 11.07499 | 1022 ft | 17 kts | 98° |
| 2026-05-05 14:23 | 49.49595 | 11.07671 | 1023 ft | 15 kts | 99° |
| 2026-05-05 14:24 | 49.49580 | 11.07828 | 1024 ft | 14 kts | 98° |
| 2026-05-05 14:24 | 49.49565 | 11.07971 | 1024 ft | 13 kts | 98° |
| 2026-05-05 14:24 | 49.49551 | 11.08123 | 1024 ft | 16 kts | 98° |
| 2026-05-05 14:24 | 49.49536 | 11.08276 | 1025 ft | 13 kts | 98° |
| 2026-05-05 14:25 | 49.49569 | 11.08352 | 1028 ft | 8 kts | 13° |
| 2026-05-05 14:25 | 49.49618 | 11.08392 | 1030 ft | 9 kts | 49° |
| 2026-05-05 14:25 | 49.49664 | 11.08489 | 1031 ft | 11 kts | 53° |
| 2026-05-05 14:25 | 49.49720 | 11.08563 | 1033 ft | 12 kts | 14° |
| 2026-05-05 14:26 | 49.49801 | 11.08492 | 1033 ft | 16 kts | 288° |
| 2026-05-05 14:26 | 49.49860 | 11.07889 | 1025 ft | 118 kts | 279° |
| 2026-05-05 14:26 | 49.50022 | 11.06318 | 1218 ft | 166 kts | 279° |
| 2026-05-05 14:26 | 49.50213 | 11.04542 | 2108 ft | 164 kts | 280° |
| 2026-05-05 14:27 | 49.50399 | 11.02871 | 3073 ft | 164 kts | 279° |
| 2026-05-05 14:27 | 49.50601 | 11.01029 | 3635 ft | 186 kts | 279° |
| 2026-05-05 14:27 | 49.50856 | 10.98918 | 4033 ft | 217 kts | 280° |
| 2026-05-05 14:27 | 49.51156 | 10.96540 | 4542 ft | 239 kts | 283° |
| 2026-05-05 14:28 | 49.51947 | 10.94237 | 5127 ft | 251 kts | 312° |
| 2026-05-05 14:28 | 49.53493 | 10.93111 | 5950 ft | 245 kts | 349° |
| 2026-05-05 14:28 | 49.55124 | 10.93116 | 6877 ft | 241 kts | 10° |
| 2026-05-05 14:28 | 49.56798 | 10.93893 | 7518 ft | 264 kts | 16° |
| 2026-05-05 14:29 | 49.58703 | 10.94496 | 8049 ft | 295 kts | 9° |
| 2026-05-05 14:29 | 49.60773 | 10.95155 | 8829 ft | 310 kts | 20° |
| 2026-05-05 14:29 | 49.62470 | 10.96958 | 10380 ft | 288 kts | 48° |
| 2026-05-05 14:29 | 49.63550 | 10.99564 | 11217 ft | 296 kts | 69° |
| 2026-05-05 14:30 | 49.64012 | 11.02792 | 11401 ft | 324 kts | 88° |
| 2026-05-05 14:30 | 49.63840 | 11.06393 | 11490 ft | 349 kts | 101° |
| 2026-05-05 14:30 | 49.63364 | 11.10130 | 12130 ft | 357 kts | 104° |
| 2026-05-05 14:30 | 49.62820 | 11.13873 | 12971 ft | 360 kts | 105° |
| 2026-05-05 14:31 | 49.62255 | 11.17666 | 13706 ft | 366 kts | 105° |
| 2026-05-05 14:31 | 49.61676 | 11.21511 | 14407 ft | 370 kts | 105° |
| 2026-05-05 14:31 | 49.61096 | 11.25388 | 15119 ft | 373 kts | 105° |
| 2026-05-05 14:31 | 49.60514 | 11.29312 | 15824 ft | 377 kts | 105° |
| 2026-05-05 14:32 | 49.59944 | 11.33238 | 16521 ft | 374 kts | 105° |
| 2026-05-05 14:32 | 49.59376 | 11.37228 | 17022 ft | 385 kts | 105° |
| 2026-05-05 14:32 | 49.58792 | 11.41272 | 17829 ft | 388 kts | 105° |
| 2026-05-05 14:32 | 49.58205 | 11.45349 | 18521 ft | 392 kts | 105° |
| 2026-05-05 14:33 | 49.57614 | 11.49476 | 19215 ft | 396 kts | 105° |
| 2026-05-05 14:33 | 49.57020 | 11.53641 | 19910 ft | 401 kts | 105° |
| 2026-05-05 14:33 | 49.56431 | 11.57804 | 20618 ft | 405 kts | 105° |
| 2026-05-05 14:33 | 49.55830 | 11.62064 | 21332 ft | 409 kts | 105° |
| 2026-05-05 14:34 | 49.55226 | 11.66367 | 22021 ft | 413 kts | 105° |
| 2026-05-05 14:34 | 49.54617 | 11.70717 | 22729 ft | 418 kts | 105° |
| 2026-05-05 14:34 | 49.53988 | 11.75103 | 23354 ft | 422 kts | 107° |
| 2026-05-05 14:34 | 49.53198 | 11.79470 | 23913 ft | 425 kts | 110° |
| 2026-05-05 14:35 | 49.52312 | 11.83832 | 24496 ft | 428 kts | 111° |
| 2026-05-05 14:35 | 49.51396 | 11.88211 | 25055 ft | 432 kts | 111° |
| 2026-05-05 14:35 | 49.50465 | 11.92629 | 25607 ft | 436 kts | 111° |
| 2026-05-05 14:35 | 49.49529 | 11.97084 | 26173 ft | 440 kts | 111° |
| 2026-05-05 14:36 | 49.48586 | 12.01583 | 26722 ft | 444 kts | 111° |
| 2026-05-05 14:36 | 49.47627 | 12.06112 | 27266 ft | 447 kts | 113° |
| 2026-05-05 14:36 | 49.46421 | 12.10512 | 27801 ft | 448 kts | 119° |
| 2026-05-05 14:36 | 49.45028 | 12.14806 | 28374 ft | 450 kts | 121° |
| 2026-05-05 14:37 | 49.43559 | 12.19097 | 28777 ft | 457 kts | 122° |
| 2026-05-05 14:37 | 49.42051 | 12.23422 | 29354 ft | 460 kts | 122° |
| 2026-05-05 14:37 | 49.40549 | 12.27713 | 29841 ft | 465 kts | 122° |
| 2026-05-05 14:37 | 49.39015 | 12.32099 | 30328 ft | 468 kts | 122° |
| 2026-05-05 14:38 | 49.37471 | 12.36514 | 30831 ft | 470 kts | 122° |
| 2026-05-05 14:38 | 49.35900 | 12.40887 | 31504 ft | 465 kts | 126° |
| 2026-05-05 14:38 | 49.34036 | 12.44896 | 32151 ft | 460 kts | 132° |
| 2026-05-05 14:38 | 49.32022 | 12.48674 | 32863 ft | 456 kts | 134° |
| 2026-05-05 14:39 | 49.30017 | 12.52436 | 33553 ft | 456 kts | 132° |
| 2026-05-05 14:39 | 49.28153 | 12.56387 | 34054 ft | 459 kts | 129° |
| 2026-05-05 14:39 | 49.26332 | 12.60406 | 34584 ft | 459 kts | 130° |
| 2026-05-05 14:39 | 49.24429 | 12.64315 | 35142 ft | 457 kts | 132° |
| 2026-05-05 14:40 | 49.22479 | 12.68162 | 35666 ft | 458 kts | 131° |
| 2026-05-05 14:40 | 49.20570 | 12.72068 | 36205 ft | 459 kts | 130° |
| 2026-05-05 14:40 | 49.18692 | 12.76019 | 36734 ft | 459 kts | 130° |
| 2026-05-05 14:40 | 49.16788 | 12.79937 | 37292 ft | 458 kts | 131° |
| 2026-05-05 14:41 | 49.14670 | 12.83553 | 37790 ft | 455 kts | 139° |
| 2026-05-05 14:41 | 49.12418 | 12.86936 | 38358 ft | 454 kts | 140° |
| 2026-05-05 14:41 | 49.10162 | 12.90326 | 38798 ft | 455 kts | 139° |
| 2026-05-05 14:41 | 49.07927 | 12.93792 | 38966 ft | 464 kts | 138° |
| 2026-05-05 14:42 | 49.05640 | 12.97351 | 38967 ft | 475 kts | 138° |
| 2026-05-05 14:42 | 49.03281 | 13.00954 | 38972 ft | 486 kts | 139° |
| 2026-05-05 14:42 | 48.98399 | 13.08383 | 38982 ft | 506 kts | 138° |
| 2026-05-05 14:43 | 48.93369 | 13.16081 | 38979 ft | 517 kts | 138° |
| 2026-05-05 14:43 | 48.88269 | 13.23813 | 38973 ft | 519 kts | 138° |
| 2026-05-05 14:44 | 48.83128 | 13.31601 | 38969 ft | 522 kts | 138° |
| 2026-05-05 14:44 | 48.78011 | 13.39310 | 38967 ft | 522 kts | 138° |
| 2026-05-05 14:45 | 48.72853 | 13.47071 | 38960 ft | 523 kts | 138° |
| 2026-05-05 14:45 | 48.67996 | 13.55294 | 38959 ft | 528 kts | 128° |
| 2026-05-05 14:46 | 48.64731 | 13.65317 | 38963 ft | 538 kts | 110° |
| 2026-05-05 14:46 | 48.63358 | 13.76448 | 38971 ft | 542 kts | 97° |
| 2026-05-05 14:47 | 48.62858 | 13.87817 | 38980 ft | 542 kts | 96° |
| 2026-05-05 14:47 | 48.61752 | 13.99048 | 38980 ft | 540 kts | 102° |
| 2026-05-05 14:48 | 48.60709 | 14.10286 | 38971 ft | 540 kts | 97° |
| 2026-05-05 14:48 | 48.59767 | 14.21341 | 37951 ft | 522 kts | 101° |
| 2026-05-05 14:49 | 48.59190 | 14.26781 | 37039 ft | 507 kts | 101° |
| 2026-05-05 14:49 | 48.58701 | 14.31970 | 36072 ft | 493 kts | 99° |
| 2026-05-05 14:49 | 48.58280 | 14.37032 | 35187 ft | 478 kts | 99° |
| 2026-05-05 14:49 | 48.57834 | 14.41943 | 34334 ft | 468 kts | 101° |
| 2026-05-05 14:50 | 48.57348 | 14.46793 | 33296 ft | 469 kts | 101° |
| 2026-05-05 14:50 | 48.56873 | 14.51666 | 32513 ft | 472 kts | 100° |
| 2026-05-05 14:50 | 48.56534 | 14.56541 | 31693 ft | 476 kts | 95° |
| 2026-05-05 14:50 | 48.56320 | 14.61541 | 30864 ft | 478 kts | 96° |
| 2026-05-05 14:51 | 48.56066 | 14.66559 | 30028 ft | 480 kts | 96° |
| 2026-05-05 14:51 | 48.55801 | 14.71542 | 29142 ft | 471 kts | 96° |
| 2026-05-05 14:51 | 48.55562 | 14.76433 | 28308 ft | 464 kts | 96° |
| 2026-05-05 14:51 | 48.55333 | 14.81255 | 27504 ft | 458 kts | 96° |
| 2026-05-05 14:52 | 48.55094 | 14.86006 | 26702 ft | 451 kts | 96° |
| 2026-05-05 14:52 | 48.54847 | 14.90707 | 25916 ft | 448 kts | 96° |
| 2026-05-05 14:52 | 48.54607 | 14.95362 | 25130 ft | 442 kts | 96° |
| 2026-05-05 14:52 | 48.54374 | 14.99959 | 24365 ft | 437 kts | 96° |
| 2026-05-05 14:53 | 48.54140 | 15.04505 | 23604 ft | 432 kts | 96° |
| 2026-05-05 14:53 | 48.53902 | 15.08992 | 22804 ft | 426 kts | 96° |
| 2026-05-05 14:53 | 48.53668 | 15.13417 | 22059 ft | 422 kts | 96° |
| 2026-05-05 14:53 | 48.53436 | 15.17805 | 21330 ft | 418 kts | 96° |
| 2026-05-05 14:54 | 48.53203 | 15.22157 | 20605 ft | 414 kts | 96° |
| 2026-05-05 14:54 | 48.52970 | 15.26463 | 19883 ft | 410 kts | 96° |
| 2026-05-05 14:54 | 48.52738 | 15.30737 | 19164 ft | 407 kts | 96° |
| 2026-05-05 14:54 | 48.52509 | 15.34931 | 18470 ft | 405 kts | 96° |
| 2026-05-05 14:55 | 48.52277 | 15.39146 | 17734 ft | 401 kts | 96° |
| 2026-05-05 14:55 | 48.52046 | 15.43305 | 17033 ft | 395 kts | 96° |
| 2026-05-05 14:55 | 48.51819 | 15.47412 | 16345 ft | 391 kts | 96° |
| 2026-05-05 14:55 | 48.51594 | 15.51480 | 15668 ft | 387 kts | 96° |
| 2026-05-05 14:56 | 48.51342 | 15.55493 | 14999 ft | 382 kts | 98° |
| 2026-05-05 14:56 | 48.51001 | 15.59443 | 14423 ft | 376 kts | 99° |
| 2026-05-05 14:56 | 48.50657 | 15.63358 | 14192 ft | 376 kts | 98° |
| 2026-05-05 14:56 | 48.50363 | 15.67283 | 13960 ft | 375 kts | 97° |
| 2026-05-05 14:57 | 48.50077 | 15.71194 | 13730 ft | 373 kts | 97° |
| 2026-05-05 14:57 | 48.49763 | 15.75087 | 13495 ft | 373 kts | 98° |
| 2026-05-05 14:57 | 48.49439 | 15.78988 | 13159 ft | 373 kts | 98° |
| 2026-05-05 14:57 | 48.49131 | 15.82848 | 12677 ft | 369 kts | 98° |
| 2026-05-05 14:58 | 48.48933 | 15.85386 | 12354 ft | 368 kts | 98° |
| 2026-05-05 14:58 | 48.48629 | 15.89194 | 11869 ft | 365 kts | 98° |
| 2026-05-05 14:58 | 48.48320 | 15.92966 | 11401 ft | 362 kts | 99° |
| 2026-05-05 14:58 | 48.48021 | 15.96627 | 10936 ft | 339 kts | 99° |
| 2026-05-05 14:59 | 48.47744 | 16.00039 | 10511 ft | 317 kts | 99° |
| 2026-05-05 14:59 | 48.47483 | 16.03240 | 10116 ft | 301 kts | 99° |
| 2026-05-05 14:59 | 48.47227 | 16.06330 | 9728 ft | 295 kts | 99° |
| 2026-05-05 14:59 | 48.46974 | 16.09378 | 9337 ft | 291 kts | 99° |
| 2026-05-05 15:00 | 48.46725 | 16.12398 | 8951 ft | 290 kts | 100° |
| 2026-05-05 15:00 | 48.46474 | 16.15406 | 8578 ft | 287 kts | 100° |
| 2026-05-05 15:00 | 48.46226 | 16.18399 | 8201 ft | 290 kts | 100° |
| 2026-05-05 15:00 | 48.45973 | 16.21433 | 7819 ft | 293 kts | 102° |
| 2026-05-05 15:01 | 48.45719 | 16.24474 | 7425 ft | 291 kts | 102° |
| 2026-05-05 15:01 | 48.45468 | 16.27472 | 7053 ft | 288 kts | 102° |
| 2026-05-05 15:01 | 48.45216 | 16.30447 | 6675 ft | 285 kts | 101° |
| 2026-05-05 15:01 | 48.44970 | 16.33403 | 6192 ft | 287 kts | 103° |
| 2026-05-05 15:02 | 48.44721 | 16.36339 | 5866 ft | 280 kts | 102° |
| 2026-05-05 15:02 | 48.44470 | 16.39235 | 5524 ft | 276 kts | 103° |
| 2026-05-05 15:02 | 48.43991 | 16.41867 | 5107 ft | 250 kts | 121° |
| 2026-05-05 15:02 | 48.42982 | 16.43855 | 4948 ft | 240 kts | 140° |
| 2026-05-05 15:03 | 48.41572 | 16.45161 | 4974 ft | 240 kts | 159° |
| 2026-05-05 15:03 | 48.39987 | 16.45903 | 5005 ft | 240 kts | 166° |
| 2026-05-05 15:03 | 48.38387 | 16.46571 | 4988 ft | 238 kts | 166° |
| 2026-05-05 15:03 | 48.36797 | 16.47249 | 4994 ft | 236 kts | 166° |
| 2026-05-05 15:04 | 48.35207 | 16.47930 | 4992 ft | 238 kts | 166° |
| 2026-05-05 15:04 | 48.33662 | 16.48594 | 4881 ft | 221 kts | 167° |
| 2026-05-05 15:04 | 48.32207 | 16.49217 | 4606 ft | 215 kts | 168° |
| 2026-05-05 15:04 | 48.30781 | 16.49826 | 4318 ft | 211 kts | 167° |
| 2026-05-05 15:05 | 48.27990 | 16.51016 | 3756 ft | 198 kts | 168° |
| 2026-05-05 15:05 | 48.26701 | 16.51569 | 3499 ft | 189 kts | 168° |
| 2026-05-05 15:05 | 48.25449 | 16.52103 | 3262 ft | 186 kts | 168° |
| 2026-05-05 15:06 | 48.24201 | 16.52633 | 3021 ft | 185 kts | 167° |
| 2026-05-05 15:06 | 48.23018 | 16.53141 | 2782 ft | 168 kts | 168° |
| 2026-05-05 15:06 | 48.21962 | 16.53584 | 2564 ft | 149 kts | 169° |
| 2026-05-05 15:06 | 48.21039 | 16.53983 | 2368 ft | 125 kts | 169° |
| 2026-05-05 15:07 | 48.20271 | 16.54303 | 2220 ft | 107 kts | 170° |
| 2026-05-05 15:07 | 48.19580 | 16.54599 | 2095 ft | 100 kts | 171° |
| 2026-05-05 15:07 | 48.18902 | 16.54885 | 1964 ft | 103 kts | 169° |
| 2026-05-05 15:07 | 48.18210 | 16.55179 | 1838 ft | 104 kts | 169° |
| 2026-05-05 15:08 | 48.17524 | 16.55471 | 1709 ft | 102 kts | 169° |
| 2026-05-05 15:08 | 48.16838 | 16.55755 | 1583 ft | 103 kts | 169° |
| 2026-05-05 15:08 | 48.16141 | 16.56049 | 1448 ft | 105 kts | 168° |
| 2026-05-05 15:08 | 48.15454 | 16.56342 | 1329 ft | 95 kts | 167° |
| 2026-05-05 15:09 | 48.14824 | 16.56605 | 1199 ft | 97 kts | 165° |
| 2026-05-05 15:09 | 48.14159 | 16.56902 | 1072 ft | 103 kts | 169° |
| 2026-05-05 15:09 | 48.13472 | 16.57184 | 935 ft | 103 kts | 168° |
| 2026-05-05 15:09 | 48.12790 | 16.57478 | 778 ft | 99 kts | 170° |
| 2026-05-05 15:10 | 48.12163 | 16.57738 | 698 ft | 95 kts | 167° |
| 2026-05-05 15:10 | 48.11534 | 16.58017 | 615 ft | 87 kts | 169° |
| 2026-05-05 15:10 | 48.11131 | 16.58150 | 609 ft | 18 kts | 195° |
| 2026-05-05 15:10 | 48.11077 | 16.58097 | 610 ft | 7 kts | 237° |
| 2026-05-05 15:11 | 48.11065 | 16.58031 | 605 ft | 7 kts | 268° |
| 2026-05-05 15:11 | 48.11082 | 16.57944 | 608 ft | 10 kts | 294° |
| 2026-05-05 15:11 | 48.11121 | 16.57823 | 608 ft | 13 kts | 296° |
| 2026-05-05 15:11 | 48.11163 | 16.57697 | 610 ft | 15 kts | 296° |
| 2026-05-05 15:12 | 48.11228 | 16.57494 | 613 ft | 24 kts | 297° |
| 2026-05-05 15:12 | 48.11294 | 16.57293 | 611 ft | 20 kts | 297° |
| 2026-05-05 15:12 | 48.11353 | 16.57115 | 605 ft | 19 kts | 296° |
| 2026-05-05 15:12 | 48.11410 | 16.56939 | 610 ft | 19 kts | 296° |
| 2026-05-05 15:13 | 48.11467 | 16.56766 | 605 ft | 18 kts | 296° |
| 2026-05-05 15:13 | 48.11516 | 16.56614 | 614 ft | 19 kts | 296° |
| 2026-05-05 15:13 | 48.11585 | 16.56405 | 608 ft | 26 kts | 296° |
| 2026-05-05 15:13 | 48.11663 | 16.56165 | 613 ft | 25 kts | 296° |
| 2026-05-05 15:14 | 48.11740 | 16.55928 | 611 ft | 25 kts | 295° |
| 2026-05-05 15:14 | 48.11813 | 16.55697 | 607 ft | 24 kts | 295° |
| 2026-05-05 15:14 | 48.11875 | 16.55506 | 607 ft | 13 kts | 291° |
| 2026-05-05 15:14 | 48.11840 | 16.55411 | 605 ft | 10 kts | 230° |
| 2026-05-05 15:15 | 48.11853 | 16.55296 | 611 ft | 16 kts | 295° |
| 2026-05-05 15:15 | 48.11910 | 16.55122 | 611 ft | 19 kts | 295° |
| 2026-05-05 15:15 | 48.11969 | 16.54937 | 612 ft | 23 kts | 296° |
| 2026-05-05 15:15 | 48.12050 | 16.54687 | 611 ft | 29 kts | 295° |
| 2026-05-05 15:16 | 48.12136 | 16.54426 | 605 ft | 28 kts | 296° |
| 2026-05-05 15:16 | 48.12220 | 16.54171 | 607 ft | 26 kts | 296° |
| 2026-05-05 15:16 | 48.12298 | 16.53928 | 610 ft | 26 kts | 295° |
| 2026-05-05 15:16 | 48.12371 | 16.53700 | 612 ft | 21 kts | 296° |
| 2026-05-05 15:17 | 48.12435 | 16.53627 | 608 ft | 11 kts | 10° |
| 2026-05-05 15:17 | 48.12510 | 16.53627 | 605 ft | 11 kts | 13° |
| 2026-05-05 15:17 | 48.12576 | 16.53675 | 605 ft | 11 kts | 27° |
| 2026-05-05 15:17 | 48.12635 | 16.53679 | 607 ft | 8 kts | 301° |
| 2026-05-05 15:18 | 48.12676 | 16.53662 | 605 ft | 7 kts | 25° |
| 2026-05-05 15:18 | 48.12708 | 16.53641 | 607 ft | 5 kts | 297° |